createdAt,value
2018-12-08T00:00:09.517Z,21.4
2018-12-08T00:10:08.715Z,21.4
2018-12-08T00:20:07.926Z,21.4
2018-12-08T00:30:07.126Z,21.4
2018-12-08T00:40:06.332Z,21.4
2018-12-08T00:50:05.529Z,21.4
2018-12-08T01:00:04.735Z,21.4
2018-12-08T01:10:03.953Z,21.4
2018-12-08T01:20:03.144Z,21.4
2018-12-08T01:30:02.345Z,21.3
2018-12-08T01:40:01.559Z,21.3
2018-12-08T01:50:00.761Z,21.4
2018-12-08T01:59:59.965Z,21.4
2018-12-08T02:09:59.173Z,21.4
2018-12-08T02:19:58.375Z,21.4
2018-12-08T02:29:57.573Z,21.4
2018-12-08T02:39:56.779Z,21.4
2018-12-08T02:49:55.987Z,21.3
2018-12-08T02:59:55.189Z,21.3
2018-12-08T03:09:54.392Z,21.3
2018-12-08T03:19:53.590Z,21.3
2018-12-08T03:29:52.796Z,21.3
2018-12-08T03:39:51.994Z,21.4
2018-12-08T03:49:51.194Z,21.3
2018-12-08T03:59:50.404Z,21.3
2018-12-08T04:09:49.624Z,21.3
2018-12-08T04:19:48.807Z,21.3
2018-12-08T04:29:48.014Z,21.3
2018-12-08T04:39:47.213Z,21.3
2018-12-08T04:49:46.416Z,21.3
2018-12-08T04:59:45.618Z,21.3
2018-12-08T05:09:44.814Z,21.3
2018-12-08T05:19:44.017Z,21.3
2018-12-08T05:29:43.249Z,21.3
2018-12-08T05:39:42.427Z,21.3
2018-12-08T05:49:41.621Z,21.3
2018-12-08T05:59:40.829Z,21.3
2018-12-08T06:09:40.033Z,21.3
2018-12-08T06:19:39.233Z,21.3
2018-12-08T06:29:38.434Z,21.3
2018-12-08T06:39:37.632Z,21.6
2018-12-08T06:49:36.885Z,21.8
2018-12-08T06:59:36.047Z,21.8
2018-12-08T07:09:35.237Z,21.9
2018-12-08T07:19:34.440Z,21.9
2018-12-08T07:29:33.639Z,21.9
2018-12-08T07:39:32.848Z,22.1
2018-12-08T07:49:32.050Z,22.4
2018-12-08T07:59:31.254Z,22.5
2018-12-08T08:09:30.473Z,22.4
2018-12-08T08:19:29.670Z,22.2
2018-12-08T08:29:28.879Z,22.3
2018-12-08T08:39:28.075Z,22.3
2018-12-08T08:49:27.280Z,22.4
2018-12-08T08:59:26.483Z,22.6
2018-12-08T09:09:25.698Z,22.7
2018-12-08T09:19:24.914Z,22.7
2018-12-08T09:29:24.111Z,22.4
2018-12-08T09:39:23.318Z,22.3
2018-12-08T09:49:22.524Z,22.1
2018-12-08T09:59:21.742Z,22.1
2018-12-08T10:09:20.944Z,22.1
2018-12-08T10:19:20.151Z,22.1
2018-12-08T10:29:19.357Z,22.2
2018-12-08T10:39:18.572Z,22.2
2018-12-08T10:49:17.858Z,22.2
2018-12-08T10:59:16.981Z,22.4
2018-12-08T11:09:16.187Z,22.6
2018-12-08T11:19:15.396Z,22.6
2018-12-08T11:29:14.609Z,22.8
2018-12-08T11:39:13.804Z,22.8
2018-12-08T11:49:13.014Z,22.9
2018-12-08T11:59:12.207Z,22.9
2018-12-08T12:09:11.413Z,22.9
2018-12-08T12:19:10.615Z,22.7
2018-12-08T12:29:09.822Z,22.6
2018-12-08T12:39:09.025Z,22.5
2018-12-08T12:49:08.220Z,22.4
2018-12-08T12:59:07.426Z,22.4
2018-12-08T13:09:06.627Z,22.2
2018-12-08T13:19:05.832Z,22.1
2018-12-08T13:29:05.037Z,21.9
2018-12-08T13:39:04.236Z,21.9
2018-12-08T13:49:03.438Z,21.8
2018-12-08T13:59:02.645Z,21.9
2018-12-08T14:09:01.846Z,22.3
2018-12-08T14:19:01.050Z,22.4
2018-12-08T14:29:00.323Z,22.6
2018-12-08T14:38:59.500Z,22.7
2018-12-08T14:48:58.650Z,22.8
2018-12-08T14:58:57.852Z,22.9
2018-12-08T15:08:57.054Z,22.9
2018-12-08T15:18:56.269Z,22.9
2018-12-08T15:28:55.473Z,22.6
2018-12-08T15:38:54.681Z,22.4
2018-12-08T15:48:53.887Z,22.3
2018-12-08T15:58:53.096Z,22.2
2018-12-08T16:08:52.302Z,22.1
2018-12-08T16:18:52.780Z,22.1
2018-12-08T16:28:50.776Z,21.9
2018-12-08T16:38:49.928Z,21.9
2018-12-08T16:48:49.177Z,21.9
2018-12-08T16:58:48.334Z,22
2018-12-08T17:08:47.536Z,22.4
2018-12-08T17:18:46.754Z,22.6
2018-12-08T17:28:45.966Z,22.4
2018-12-08T17:38:45.177Z,22.3
2018-12-08T17:48:44.388Z,22.4
2018-12-08T17:58:43.608Z,22.3
2018-12-08T18:08:42.825Z,22.3
2018-12-08T18:18:42.038Z,22.3
2018-12-08T18:28:41.251Z,22.2
2018-12-08T18:38:40.502Z,22.4
2018-12-08T18:48:39.841Z,22.6
2018-12-08T18:58:38.884Z,22.6
2018-12-08T19:08:38.103Z,22.6
2018-12-08T19:18:37.309Z,22.4
2018-12-08T19:28:36.523Z,22.3
2018-12-08T19:38:35.729Z,22.3
2018-12-08T19:48:34.994Z,22.2
2018-12-08T19:58:34.152Z,22.2
2018-12-08T20:08:33.366Z,22.4
2018-12-08T20:18:32.573Z,22.4
2018-12-08T20:28:31.795Z,22.4
2018-12-08T20:38:31.003Z,22.5
2018-12-08T20:48:30.218Z,22.5
2018-12-08T20:58:29.434Z,22.3
2018-12-08T21:08:28.645Z,22.3
2018-12-08T21:18:27.850Z,22.2
2018-12-08T21:28:27.067Z,22.1
2018-12-08T21:38:26.281Z,22.1
2018-12-08T21:48:25.497Z,22
2018-12-08T21:58:24.693Z,21.9
2018-12-08T22:08:23.908Z,21.9
2018-12-08T22:18:23.120Z,21.9
2018-12-08T22:28:22.323Z,21.9
2018-12-08T22:38:21.527Z,21.8
2018-12-08T22:48:20.741Z,21.8
2018-12-08T22:58:19.948Z,21.8
2018-12-08T23:08:19.153Z,21.8
2018-12-08T23:18:18.356Z,21.8
2018-12-08T23:28:17.567Z,21.8
2018-12-08T23:38:16.775Z,21.7
2018-12-08T23:48:15.983Z,21.6
2018-12-08T23:58:15.188Z,21.6
